Climatologie pour Saint-Brevin les Pins
Jour • Résumé pour mai 15, 2017 Système :  Métrique    Anglais   Mixte
« - 1 jour
+ 1 jour »
Jour Semaine Mois Année Personnalisé
  Maximum : Minimum : Moyenne :
Température sous abri : 22.2 °C 11.8 °C 16.5 °C
Point de rosée : 15.5 °C 10.2 °C 12.8 °C
Humidité : 95 % 59 % 80 %
Vitesse du vent : 17.7 km/h 0.0 km/h 4.6 km/h
Rafale : 29.0 km/h - -
Direction :- - SSW
Pression : 1027.0 hPa 1025.3 hPa -
Précipitations : 0.0 mm    
Historical Graphs
 
 
Tableau de données pour mai 15, 2017
Heure Tempé Pt rosée Pression Vent Vitesse Rafale Humidité Taux pluie (/hr) Soleil
00:00 12.7 °C 11.2 °C 1025.6 hPa SSW 1.6 km/h 6.4 km/h 91 % 0.0 mm 0 W/m2
00:05 12.6 °C 11.2 °C 1025.6 hPa SSW 4.8 km/h 6.4 km/h 91 % 0.0 mm 0 W/m2
00:10 12.6 °C 11.3 °C 1025.6 hPa Calm   6.4 km/h 92 % 0.0 mm 0 W/m2
00:15 12.6 °C 11.3 °C 1025.6 hPa Calm   6.4 km/h 92 % 0.0 mm 0 W/m2
00:25 12.6 °C 11.3 °C 1026.0 hPa SSE 1.6 km/h 9.7 km/h 92 % 0.0 mm 0 W/m2
00:30 12.6 °C 11.3 °C 1025.6 hPa SSE 4.8 km/h 6.4 km/h 92 % 0.0 mm 0 W/m2
00:40 12.6 °C 11.3 °C 1025.6 hPa SSE 1.6 km/h 6.4 km/h 92 % 0.0 mm 0 W/m2
00:45 12.6 °C 11.3 °C 1025.6 hPa Calm   4.8 km/h 92 % 0.0 mm 0 W/m2
00:50 12.5 °C 11.4 °C 1025.6 hPa SSE 1.6 km/h 3.2 km/h 93 % 0.0 mm 0 W/m2
00:55 12.4 °C 11.3 °C 1025.6 hPa SSE 1.6 km/h 4.8 km/h 93 % 0.0 mm 0 W/m2
01:00 12.3 °C 11.2 °C 1025.6 hPa Calm   4.8 km/h 93 % 0.0 mm 0 W/m2
01:05 12.3 °C 11.2 °C 1025.6 hPa Calm   4.8 km/h 93 % 0.0 mm 0 W/m2
01:10 12.2 °C 11.1 °C 1025.6 hPa Calm   3.2 km/h 93 % 0.0 mm 0 W/m2
01:15 12.1 °C 11.0 °C 1025.6 hPa SSE 3.2 km/h 6.4 km/h 93 % 0.0 mm 0 W/m2
01:25 12.1 °C 11.2 °C 1025.6 hPa Calm   6.4 km/h 94 % 0.0 mm 0 W/m2
01:30 12.1 °C 11.1 °C 1025.6 hPa Calm   6.4 km/h 94 % 0.0 mm 0 W/m2
01:35 12.1 °C 11.1 °C 1025.6 hPa SSE 1.6 km/h 4.8 km/h 94 % 0.0 mm 0 W/m2
01:40 12.0 °C 11.1 °C 1025.6 hPa Calm   4.8 km/h 94 % 0.0 mm 0 W/m2
01:45 11.9 °C 11.0 °C 1025.6 hPa SSE 1.6 km/h 6.4 km/h 94 % 0.0 mm 0 W/m2
01:50 11.9 °C 11.0 °C 1025.3 hPa Calm   6.4 km/h 94 % 0.0 mm 0 W/m2
01:55 11.8 °C 10.9 °C 1025.6 hPa Calm   6.4 km/h 94 % 0.0 mm 0 W/m2
02:00 11.8 °C 10.9 °C 1025.6 hPa Calm   6.4 km/h 94 % 0.0 mm 0 W/m2
02:05 11.8 °C 10.9 °C 1025.6 hPa Calm   6.4 km/h 94 % 0.0 mm 0 W/m2
02:10 11.9 °C 11.1 °C 1025.6 hPa SSE 1.6 km/h 4.8 km/h 95 % 0.0 mm 0 W/m2
02:20 12.1 °C 11.3 °C 1025.3 hPa SSE 8.0 km/h 9.7 km/h 95 % 0.0 mm 0 W/m2
02:25 12.2 °C 11.3 °C 1025.6 hPa South 6.4 km/h 9.7 km/h 94 % 0.0 mm 0 W/m2
02:30 12.4 °C 11.5 °C 1025.6 hPa South 6.4 km/h 9.7 km/h 94 % 0.0 mm 0 W/m2
02:35 12.5 °C 11.4 °C 1025.6 hPa South 4.8 km/h 8.0 km/h 93 % 0.0 mm 0 W/m2
02:40 12.4 °C 11.3 °C 1025.6 hPa South 1.6 km/h 8.0 km/h 93 % 0.0 mm 0 W/m2
02:45 12.4 °C 11.2 °C 1025.6 hPa South 3.2 km/h 9.7 km/h 92 % 0.0 mm 0 W/m2
02:55 12.4 °C 11.2 °C 1025.6 hPa SSE 4.8 km/h 9.7 km/h 92 % 0.0 mm 0 W/m2
03:00 12.5 °C 11.1 °C 1025.6 hPa SSE 4.8 km/h 9.7 km/h 91 % 0.0 mm 0 W/m2
03:05 12.4 °C 11.0 °C 1025.6 hPa South 1.6 km/h 9.7 km/h 91 % 0.0 mm 0 W/m2
03:10 12.4 °C 10.8 °C 1025.6 hPa South 6.4 km/h 9.7 km/h 90 % 0.0 mm 0 W/m2
03:15 12.4 °C 10.8 °C 1025.6 hPa South 4.8 km/h 9.7 km/h 90 % 0.0 mm 0 W/m2
03:20 12.3 °C 10.7 °C 1025.6 hPa South 6.4 km/h 9.7 km/h 90 % 0.0 mm 0 W/m2
03:25 12.3 °C 10.6 °C 1025.6 hPa SSE 8.0 km/h 9.7 km/h 89 % 0.0 mm 0 W/m2
03:30 12.3 °C 10.5 °C 1025.6 hPa SSE 4.8 km/h 9.7 km/h 89 % 0.0 mm 0 W/m2
03:40 12.1 °C 10.4 °C 1025.3 hPa SSE 3.2 km/h 6.4 km/h 89 % 0.0 mm 0 W/m2
03:45 12.0 °C 10.4 °C 1025.3 hPa SE 1.6 km/h 8.0 km/h 90 % 0.0 mm 0 W/m2
03:50 12.0 °C 10.4 °C 1025.6 hPa SE 4.8 km/h 8.0 km/h 90 % 0.0 mm 0 W/m2
03:55 12.1 °C 10.5 °C 1025.3 hPa SSE 6.4 km/h 8.0 km/h 90 % 0.0 mm 0 W/m2
04:00 12.2 °C 10.4 °C 1025.3 hPa SSE 8.0 km/h 9.7 km/h 89 % 0.0 mm 0 W/m2
04:05 12.2 °C 10.4 °C 1025.3 hPa SSE 3.2 km/h 9.7 km/h 89 % 0.0 mm 0 W/m2
04:10 12.1 °C 10.3 °C 1025.3 hPa SSE 4.8 km/h 9.7 km/h 89 % 0.0 mm 0 W/m2
04:15 12.1 °C 10.4 °C 1025.3 hPa SE 6.4 km/h 9.7 km/h 89 % 0.0 mm 0 W/m2
04:25 12.1 °C 10.2 °C 1025.6 hPa SSE 6.4 km/h 9.7 km/h 88 % 0.0 mm 0 W/m2
04:30 12.1 °C 10.2 °C 1025.6 hPa SSE 8.0 km/h 9.7 km/h 88 % 0.0 mm 0 W/m2
04:35 12.2 °C 10.3 °C 1025.6 hPa SSE 6.4 km/h 9.7 km/h 88 % 0.0 mm 0 W/m2
04:40 12.2 °C 10.3 °C 1025.6 hPa South 3.2 km/h 9.7 km/h 88 % 0.0 mm 0 W/m2
04:45 12.2 °C 10.2 °C 1025.6 hPa SSE 4.8 km/h 9.7 km/h 88 % 0.0 mm 0 W/m2
04:50 12.2 °C 10.2 °C 1025.6 hPa SSE 8.0 km/h 8.0 km/h 88 % 0.0 mm 0 W/m2
04:55 12.2 °C 10.2 °C 1025.6 hPa SE 3.2 km/h 9.7 km/h 88 % 0.0 mm 0 W/m2
05:00 12.3 °C 10.3 °C 1025.6 hPa SSE 4.8 km/h 9.7 km/h 88 % 0.0 mm 0 W/m2
05:05 12.4 °C 10.5 °C 1025.6 hPa SSE 6.4 km/h 8.0 km/h 88 % 0.0 mm 0 W/m2
05:10 12.4 °C 10.3 °C 1025.6 hPa SSE 3.2 km/h 11.3 km/h 87 % 0.0 mm 0 W/m2
05:15 12.6 °C 10.5 °C 1025.6 hPa SSE 4.8 km/h 11.3 km/h 87 % 0.0 mm 0 W/m2
05:20 12.8 °C 10.7 °C 1025.6 hPa SSE 3.2 km/h 11.3 km/h 87 % 0.0 mm 0 W/m2
05:25 12.9 °C 10.6 °C 1025.6 hPa SSE 6.4 km/h 11.3 km/h 86 % 0.0 mm 0 W/m2
05:30 12.9 °C 10.7 °C 1025.6 hPa SSE 3.2 km/h 9.7 km/h 86 % 0.0 mm 0 W/m2
05:35 12.9 °C 10.5 °C 1025.6 hPa SSE 1.6 km/h 8.0 km/h 85 % 0.0 mm 0 W/m2
05:40 13.1 °C 10.6 °C 1025.6 hPa Calm   8.0 km/h 85 % 0.0 mm 0 W/m2
05:45 13.2 °C 10.7 °C 1025.3 hPa SE 6.4 km/h 8.0 km/h 85 % 0.0 mm 0 W/m2
05:55 13.2 °C 10.5 °C 1025.3 hPa SSE 4.8 km/h 9.7 km/h 84 % 0.0 mm 0 W/m2
06:00 13.2 °C 10.6 °C 1025.3 hPa SE 1.6 km/h 11.3 km/h 84 % 0.0 mm 0 W/m2
06:05 13.2 °C 10.5 °C 1025.3 hPa SSE 4.8 km/h 11.3 km/h 84 % 0.0 mm 0 W/m2
06:10 13.1 °C 10.4 °C 1025.3 hPa SSE 4.8 km/h 9.7 km/h 84 % 0.0 mm 0 W/m2
06:15 13.1 °C 10.4 °C 1025.3 hPa SSE 4.8 km/h 9.7 km/h 84 % 0.0 mm 0 W/m2
06:20 13.2 °C 10.5 °C 1025.3 hPa South 4.8 km/h 9.7 km/h 84 % 0.0 mm 0 W/m2
06:25 13.2 °C 10.4 °C 1025.3 hPa Calm   9.7 km/h 83 % 0.0 mm 0 W/m2
06:30 13.3 °C 10.5 °C 1025.6 hPa SSE 3.2 km/h 9.7 km/h 83 % 0.0 mm 0 W/m2
06:40 13.3 °C 10.5 °C 1025.6 hPa Calm   8.0 km/h 83 % 0.0 mm 5 W/m2
06:45 13.3 °C 10.5 °C 1025.6 hPa South 3.2 km/h 8.0 km/h 83 % 0.0 mm 7 W/m2
06:50 13.4 °C 10.6 °C 1025.6 hPa Calm   6.4 km/h 83 % 0.0 mm 9 W/m2
06:55 13.4 °C 10.6 °C 1025.6 hPa Calm   6.4 km/h 83 % 0.0 mm 11 W/m2
07:00 13.4 °C 10.6 °C 1025.6 hPa South 4.8 km/h 6.4 km/h 83 % 0.0 mm 9 W/m2
07:05 13.6 °C 10.5 °C 1025.6 hPa Calm   6.4 km/h 82 % 0.0 mm 5 W/m2
07:10 13.6 °C 10.8 °C 1025.6 hPa South 1.6 km/h 6.4 km/h 83 % 0.0 mm 5 W/m2
07:15 13.6 °C 10.8 °C 1026.0 hPa South 1.6 km/h 6.4 km/h 83 % 0.0 mm 7 W/m2
07:25 13.7 °C 10.7 °C 1026.0 hPa South 4.8 km/h 6.4 km/h 82 % 0.0 mm 21 W/m2
07:30 13.8 °C 10.8 °C 1026.0 hPa South 3.2 km/h 6.4 km/h 82 % 0.0 mm 25 W/m2
07:35 13.9 °C 10.9 °C 1026.0 hPa SSE 3.2 km/h 6.4 km/h 82 % 0.0 mm 25 W/m2
07:40 14.1 °C 10.8 °C 1026.0 hPa SSE 3.2 km/h 6.4 km/h 81 % 0.0 mm 37 W/m2
07:45 14.1 °C 10.9 °C 1026.0 hPa SSE 3.2 km/h 6.4 km/h 81 % 0.0 mm 37 W/m2
07:50 14.1 °C 10.9 °C 1026.3 hPa SSE 4.8 km/h 6.4 km/h 81 % 0.0 mm 37 W/m2
07:55 14.2 °C 11.1 °C 1026.0 hPa Calm   6.4 km/h 82 % 0.0 mm 37 W/m2
08:00 14.2 °C 11.1 °C 1026.0 hPa SSE 6.4 km/h 8.0 km/h 82 % 0.0 mm 40 W/m2
08:10 14.3 °C 11.3 °C 1026.0 hPa SE 1.6 km/h 9.7 km/h 82 % 0.0 mm 86 W/m2
08:15 14.6 °C 11.3 °C 1026.0 hPa SSE 6.4 km/h 9.7 km/h 81 % 0.0 mm 88 W/m2
08:20 14.8 °C 11.4 °C 1026.0 hPa SE 3.2 km/h 11.3 km/h 80 % 0.0 mm 95 W/m2
08:25 14.9 °C 11.5 °C 1026.0 hPa SE 6.4 km/h 12.9 km/h 80 % 0.0 mm 120 W/m2
08:30 15.2 °C 11.5 °C 1026.0 hPa SE 4.8 km/h 12.9 km/h 79 % 0.0 mm 153 W/m2
08:35 15.4 °C 11.8 °C 1026.3 hPa SSE 3.2 km/h 11.3 km/h 79 % 0.0 mm 195 W/m2
08:40 15.7 °C 12.1 °C 1026.3 hPa SE 3.2 km/h 11.3 km/h 79 % 0.0 mm 239 W/m2
08:45 16.1 °C 12.0 °C 1026.3 hPa South 8.0 km/h 14.5 km/h 77 % 0.0 mm 209 W/m2
08:55 16.4 °C 12.2 °C 1026.3 hPa South 6.4 km/h 11.3 km/h 76 % 0.0 mm 146 W/m2
09:00 16.4 °C 12.1 °C 1026.3 hPa SSE 4.8 km/h 14.5 km/h 76 % 0.0 mm 139 W/m2
09:05 16.4 °C 12.2 °C 1026.6 hPa SE 3.2 km/h 14.5 km/h 76 % 0.0 mm 116 W/m2
09:10 16.4 °C 12.2 °C 1026.6 hPa SSE 1.6 km/h 11.3 km/h 76 % 0.0 mm 121 W/m2
09:15 16.6 °C 12.3 °C 1026.3 hPa SSE 6.4 km/h 9.7 km/h 76 % 0.0 mm 165 W/m2
09:20 16.7 °C 12.3 °C 1026.6 hPa SE 1.6 km/h 9.7 km/h 75 % 0.0 mm 176 W/m2
09:25 16.9 °C 12.2 °C 1026.3 hPa South 12.9 km/h 12.9 km/h 74 % 0.0 mm 121 W/m2
09:30 16.9 °C 12.0 °C 1026.6 hPa South 4.8 km/h 12.9 km/h 73 % 0.0 mm 146 W/m2
09:40 17.2 °C 11.9 °C 1026.6 hPa SE 4.8 km/h 14.5 km/h 71 % 0.0 mm 167 W/m2
09:45 17.2 °C 12.1 °C 1026.3 hPa SSE 9.7 km/h 14.5 km/h 72 % 0.0 mm 172 W/m2
09:50 17.3 °C 12.2 °C 1026.6 hPa SSW 11.3 km/h 14.5 km/h 72 % 0.0 mm 192 W/m2
09:55 17.3 °C 12.4 °C 1026.3 hPa SSE 6.4 km/h 14.5 km/h 73 % 0.0 mm 237 W/m2
10:05 17.6 °C 12.2 °C 1026.6 hPa South 11.3 km/h 14.5 km/h 71 % 0.0 mm 163 W/m2
10:10 17.5 °C 12.2 °C 1026.6 hPa SSE 9.7 km/h 16.1 km/h 71 % 0.0 mm 186 W/m2
10:15 17.6 °C 12.5 °C 1026.6 hPa South 4.8 km/h 16.1 km/h 72 % 0.0 mm 248 W/m2
10:25 18.0 °C 12.9 °C 1026.6 hPa South 4.8 km/h 12.9 km/h 72 % 0.0 mm 285 W/m2
10:30 18.2 °C 12.8 °C 1026.6 hPa SSE 11.3 km/h 14.5 km/h 71 % 0.0 mm 276 W/m2
10:35 18.3 °C 12.9 °C 1026.6 hPa SSE 8.0 km/h 14.5 km/h 71 % 0.0 mm 294 W/m2
10:40 18.4 °C 13.1 °C 1026.6 hPa ESE 8.0 km/h 14.5 km/h 71 % 0.0 mm 267 W/m2
10:45 18.6 °C 13.0 °C 1026.6 hPa SSE 6.4 km/h 16.1 km/h 70 % 0.0 mm 255 W/m2
10:50 18.6 °C 13.0 °C 1026.6 hPa SSE 4.8 km/h 16.1 km/h 70 % 0.0 mm 241 W/m2
10:55 18.6 °C 12.8 °C 1026.6 hPa SSE 11.3 km/h 20.9 km/h 69 % 0.0 mm 232 W/m2
11:00 18.7 °C 13.1 °C 1026.6 hPa SSE 6.4 km/h 20.9 km/h 70 % 0.0 mm 251 W/m2
11:05 18.8 °C 12.8 °C 1026.6 hPa South 3.2 km/h 16.1 km/h 68 % 0.0 mm 283 W/m2
11:10 19.1 °C 13.5 °C 1026.6 hPa South 6.4 km/h 14.5 km/h 70 % 0.0 mm 325 W/m2
11:15 19.3 °C 13.5 °C 1026.6 hPa South 9.7 km/h 17.7 km/h 69 % 0.0 mm 353 W/m2
11:20 19.4 °C 13.2 °C 1026.6 hPa SSE 11.3 km/h 17.7 km/h 67 % 0.0 mm 413 W/m2
11:25 19.7 °C 13.2 °C 1026.6 hPa SSE 11.3 km/h 19.3 km/h 66 % 0.0 mm 448 W/m2
11:30 20.0 °C 13.5 °C 1026.6 hPa SSW 11.3 km/h 24.1 km/h 66 % 0.0 mm 466 W/m2
11:35 20.2 °C 13.4 °C 1026.6 hPa SSW 11.3 km/h 24.1 km/h 65 % 0.0 mm 494 W/m2
11:40 20.3 °C 13.2 °C 1026.6 hPa South 9.7 km/h 20.9 km/h 64 % 0.0 mm 480 W/m2
11:45 20.2 °C 13.2 °C 1026.6 hPa South 16.1 km/h 22.5 km/h 64 % 0.0 mm 455 W/m2
11:55 20.4 °C 13.6 °C 1026.6 hPa SSE 9.7 km/h 24.1 km/h 65 % 0.0 mm 461 W/m2
12:00 20.6 °C 13.6 °C 1026.6 hPa SSE 12.9 km/h 24.1 km/h 64 % 0.0 mm 461 W/m2
12:05 20.8 °C 13.7 °C 1026.6 hPa SSW 8.0 km/h 24.1 km/h 64 % 0.0 mm 475 W/m2
12:10 21.0 °C 13.7 °C 1026.6 hPa South 8.0 km/h 22.5 km/h 63 % 0.0 mm 478 W/m2
12:15 21.1 °C 13.7 °C 1026.6 hPa South 12.9 km/h 24.1 km/h 63 % 0.0 mm 489 W/m2
12:20 21.2 °C 13.8 °C 1026.6 hPa SSW 17.7 km/h 24.1 km/h 63 % 0.0 mm 513 W/m2
12:25 21.3 °C 13.8 °C 1026.6 hPa SSW 16.1 km/h 25.7 km/h 62 % 0.0 mm 508 W/m2
12:30 21.5 °C 13.4 °C 1026.6 hPa SSW 12.9 km/h 25.7 km/h 60 % 0.0 mm 527 W/m2
12:40 21.6 °C 13.2 °C 1026.6 hPa South 9.7 km/h 29.0 km/h 59 % 0.0 mm 526 W/m2
12:45 21.8 °C 13.7 °C 1026.6 hPa SW 11.3 km/h 29.0 km/h 60 % 0.0 mm 527 W/m2
12:50 21.8 °C 13.7 °C 1026.6 hPa SSW 8.0 km/h 24.1 km/h 60 % 0.0 mm 577 W/m2
12:55 22.2 °C 14.8 °C 1026.6 hPa SSE 14.5 km/h 22.5 km/h 63 % 0.0 mm 534 W/m2
13:00 22.2 °C 14.5 °C 1027.0 hPa SW 8.0 km/h 22.5 km/h 62 % 0.0 mm 554 W/m2
13:05 22.1 °C 14.0 °C 1027.0 hPa South 11.3 km/h 22.5 km/h 60 % 0.0 mm 582 W/m2
13:10 22.2 °C 14.0 °C 1027.0 hPa SSW 9.7 km/h 20.9 km/h 60 % 0.0 mm 668 W/m2
13:15 22.2 °C 14.8 °C 1027.0 hPa SSW 8.0 km/h 19.3 km/h 63 % 0.0 mm 708 W/m2
13:20 22.1 °C 14.5 °C 1027.0 hPa South 9.7 km/h 19.3 km/h 62 % 0.0 mm 694 W/m2
13:25 21.8 °C 14.5 °C 1027.0 hPa SSW 4.8 km/h 22.5 km/h 63 % 0.0 mm 668 W/m2
13:30 22.1 °C 14.7 °C 1027.0 hPa SSW 14.5 km/h 24.1 km/h 63 % 0.0 mm 700 W/m2
13:35 22.2 °C 14.3 °C 1027.0 hPa SSW 9.7 km/h 24.1 km/h 61 % 0.0 mm 793 W/m2
13:40 22.0 °C 14.9 °C 1027.0 hPa SSW 12.9 km/h 17.7 km/h 64 % 0.0 mm 844 W/m2
13:45 21.8 °C 14.5 °C 1027.0 hPa SSW 4.8 km/h 17.7 km/h 63 % 0.0 mm 714 W/m2
13:50 21.7 °C 14.1 °C 1027.0 hPa South 4.8 km/h 16.1 km/h 62 % 0.0 mm 701 W/m2
13:55 22.1 °C 15.5 °C 1027.0 hPa SW 8.0 km/h 16.1 km/h 66 % 0.0 mm 659 W/m2
14:00 21.9 °C 14.6 °C 1027.0 hPa SW 3.2 km/h 16.1 km/h 63 % 0.0 mm 647 W/m2
14:05 21.6 °C 14.5 °C 1027.0 hPa SSW 3.2 km/h 20.9 km/h 64 % 0.0 mm 728 W/m2
14:10 22.0 °C 15.1 °C 1027.0 hPa SW 3.2 km/h 20.9 km/h 65 % 0.0 mm 932 W/m2
14:15 22.1 °C 15.0 °C 1027.0 hPa WNW 4.8 km/h 17.7 km/h 64 % 0.0 mm 601 W/m2
14:20 21.4 °C 14.8 °C 1027.0 hPa SW 11.3 km/h 19.3 km/h 66 % 0.0 mm 564 W/m2
14:25 21.7 °C 14.6 °C 1027.0 hPa SW 6.4 km/h 19.3 km/h 64 % 0.0 mm 867 W/m2
14:30 21.8 °C 14.2 °C 1027.0 hPa SW 11.3 km/h 20.9 km/h 62 % 0.0 mm 932 W/m2
14:35 21.8 °C 13.9 °C 1027.0 hPa WSW 8.0 km/h 20.9 km/h 61 % 0.0 mm 626 W/m2
14:40 21.6 °C 14.5 °C 1027.0 hPa WSW 17.7 km/h 17.7 km/h 64 % 0.0 mm 603 W/m2
14:45 21.3 °C 14.0 °C 1027.0 hPa SSW 3.2 km/h 20.9 km/h 63 % 0.0 mm 550 W/m2
14:50 21.3 °C 14.2 °C 1027.0 hPa WSW 11.3 km/h 20.9 km/h 64 % 0.0 mm 550 W/m2
14:55 21.6 °C 14.5 °C 1027.0 hPa WNW 8.0 km/h 20.9 km/h 64 % 0.0 mm 503 W/m2
15:00 21.1 °C 14.0 °C 1027.0 hPa SSW 8.0 km/h 17.7 km/h 64 % 0.0 mm 468 W/m2
15:05 20.9 °C 13.9 °C 1027.0 hPa SW 1.6 km/h 16.1 km/h 64 % 0.0 mm 441 W/m2
15:10 20.9 °C 14.4 °C 1027.0 hPa West 6.4 km/h 16.1 km/h 66 % 0.0 mm 411 W/m2
15:15 20.7 °C 13.9 °C 1027.0 hPa SSW 3.2 km/h 17.7 km/h 65 % 0.0 mm 408 W/m2
15:20 20.7 °C 14.3 °C 1027.0 hPa SW 1.6 km/h 17.7 km/h 67 % 0.0 mm 394 W/m2
15:25 20.6 °C 13.7 °C 1027.0 hPa WSW 12.9 km/h 16.1 km/h 65 % 0.0 mm 373 W/m2
15:30 20.3 °C 13.8 °C 1027.0 hPa NW 1.6 km/h 16.1 km/h 66 % 0.0 mm 367 W/m2
15:35 20.3 °C 13.9 °C 1027.0 hPa WSW 8.0 km/h 16.1 km/h 67 % 0.0 mm 388 W/m2
15:40 20.3 °C 14.0 °C 1027.0 hPa WNW 11.3 km/h 14.5 km/h 67 % 0.0 mm 401 W/m2
15:45 20.2 °C 14.3 °C 1027.0 hPa SW 14.5 km/h 19.3 km/h 69 % 0.0 mm 413 W/m2
15:50 20.2 °C 14.8 °C 1026.6 hPa WSW 11.3 km/h 19.3 km/h 71 % 0.0 mm 401 W/m2
15:55 20.2 °C 14.1 °C 1026.6 hPa WSW 6.4 km/h 14.5 km/h 68 % 0.0 mm 383 W/m2
16:00 20.2 °C 14.6 °C 1026.6 hPa West 8.0 km/h 14.5 km/h 70 % 0.0 mm 371 W/m2
16:05 20.0 °C 13.7 °C 1026.6 hPa WSW 9.7 km/h 12.9 km/h 67 % 0.0 mm 369 W/m2
16:10 19.8 °C 14.2 °C 1026.6 hPa West 12.9 km/h 17.7 km/h 70 % 0.0 mm 350 W/m2
16:15 19.7 °C 14.0 °C 1026.6 hPa West 8.0 km/h 17.7 km/h 70 % 0.0 mm 330 W/m2
16:25 19.4 °C 14.2 °C 1026.6 hPa WSW 17.7 km/h 20.9 km/h 72 % 0.0 mm 311 W/m2
16:30 19.3 °C 14.1 °C 1026.6 hPa WSW 14.5 km/h 20.9 km/h 72 % 0.0 mm 294 W/m2
16:35 19.2 °C 14.2 °C 1026.6 hPa West 3.2 km/h 17.7 km/h 73 % 0.0 mm 276 W/m2
16:40 18.9 °C 14.0 °C 1026.6 hPa West 4.8 km/h 17.7 km/h 73 % 0.0 mm 262 W/m2
16:45 18.8 °C 14.3 °C 1026.6 hPa Calm   14.5 km/h 75 % 0.0 mm 246 W/m2
16:50 18.7 °C 14.2 °C 1026.6 hPa WSW 3.2 km/h 14.5 km/h 75 % 0.0 mm 230 W/m2
16:55 18.7 °C 14.3 °C 1026.6 hPa West 4.8 km/h 14.5 km/h 76 % 0.0 mm 220 W/m2
17:00 18.5 °C 14.2 °C 1026.6 hPa SW 6.4 km/h 16.1 km/h 76 % 0.0 mm 211 W/m2
17:10 18.3 °C 14.2 °C 1026.3 hPa Calm   11.3 km/h 77 % 0.0 mm 211 W/m2
17:15 18.4 °C 14.3 °C 1026.3 hPa SW 9.7 km/h 11.3 km/h 77 % 0.0 mm 209 W/m2
17:20 18.6 °C 14.6 °C 1026.3 hPa West 1.6 km/h 9.7 km/h 78 % 0.0 mm 209 W/m2
17:25 18.6 °C 14.5 °C 1026.3 hPa WSW 1.6 km/h 9.7 km/h 77 % 0.0 mm 221 W/m2
17:30 18.6 °C 14.4 °C 1026.3 hPa West 4.8 km/h 9.7 km/h 77 % 0.0 mm 244 W/m2
17:35 18.7 °C 14.6 °C 1026.3 hPa WSW 4.8 km/h 9.7 km/h 77 % 0.0 mm 267 W/m2
17:40 18.7 °C 14.6 °C 1026.3 hPa West 4.8 km/h 9.7 km/h 77 % 0.0 mm 283 W/m2
17:45 18.8 °C 14.5 °C 1026.3 hPa SW 1.6 km/h 9.7 km/h 76 % 0.0 mm 267 W/m2
17:50 18.8 °C 14.3 °C 1026.3 hPa WSW 6.4 km/h 9.7 km/h 75 % 0.0 mm 253 W/m2
17:55 18.8 °C 14.7 °C 1026.3 hPa WSW 8.0 km/h 9.7 km/h 77 % 0.0 mm 258 W/m2
18:00 18.8 °C 14.3 °C 1026.3 hPa WSW 4.8 km/h 9.7 km/h 75 % 0.0 mm 274 W/m2
18:05 18.7 °C 14.4 °C 1026.3 hPa West 4.8 km/h 9.7 km/h 76 % 0.0 mm 271 W/m2
18:10 18.7 °C 14.6 °C 1026.3 hPa WSW 9.7 km/h 11.3 km/h 77 % 0.0 mm 287 W/m2
18:15 18.7 °C 14.2 °C 1026.3 hPa WSW 8.0 km/h 11.3 km/h 75 % 0.0 mm 278 W/m2
18:20 18.8 °C 14.3 °C 1026.3 hPa Calm   11.3 km/h 75 % 0.0 mm 265 W/m2
18:25 18.8 °C 14.3 °C 1026.3 hPa Calm   9.7 km/h 75 % 0.0 mm 313 W/m2
18:30 18.8 °C 14.3 °C 1026.3 hPa WSW 1.6 km/h 8.0 km/h 75 % 0.0 mm 330 W/m2
18:40 18.8 °C 14.0 °C 1026.0 hPa WSW 6.4 km/h 9.7 km/h 74 % 0.0 mm 297 W/m2
18:45 19.0 °C 14.5 °C 1026.0 hPa SW 8.0 km/h 8.0 km/h 75 % 0.0 mm 287 W/m2
18:50 18.9 °C 14.4 °C 1026.0 hPa West 3.2 km/h 8.0 km/h 75 % 0.0 mm 301 W/m2
18:55 19.0 °C 14.5 °C 1026.0 hPa Calm   8.0 km/h 75 % 0.0 mm 264 W/m2
19:00 19.0 °C 14.5 °C 1026.0 hPa NW 3.2 km/h 8.0 km/h 75 % 0.0 mm 267 W/m2
19:05 18.9 °C 14.8 °C 1026.0 hPa NW 3.2 km/h 8.0 km/h 77 % 0.0 mm 209 W/m2
19:10 18.6 °C 14.5 °C 1026.0 hPa West 4.8 km/h 9.7 km/h 77 % 0.0 mm 213 W/m2
19:15 18.4 °C 14.5 °C 1026.0 hPa West 1.6 km/h 9.7 km/h 78 % 0.0 mm 199 W/m2
19:20 18.3 °C 14.6 °C 1026.0 hPa West 4.8 km/h 8.0 km/h 79 % 0.0 mm 186 W/m2
19:25 18.1 °C 14.4 °C 1026.0 hPa West 6.4 km/h 8.0 km/h 79 % 0.0 mm 160 W/m2
19:30 17.9 °C 14.4 °C 1026.0 hPa West 1.6 km/h 8.0 km/h 80 % 0.0 mm 160 W/m2
19:35 17.8 °C 14.3 °C 1026.0 hPa Calm   8.0 km/h 80 % 0.0 mm 148 W/m2
19:40 17.7 °C 14.4 °C 1026.0 hPa Calm   8.0 km/h 81 % 0.0 mm 132 W/m2
19:45 17.8 °C 14.5 °C 1026.0 hPa West 1.6 km/h 6.4 km/h 81 % 0.0 mm 121 W/m2
19:50 17.7 °C 14.4 °C 1026.0 hPa West 4.8 km/h 8.0 km/h 81 % 0.0 mm 105 W/m2
19:55 17.5 °C 14.2 °C 1026.0 hPa Calm   8.0 km/h 81 % 0.0 mm 97 W/m2
20:00 17.4 °C 14.3 °C 1026.0 hPa West 1.6 km/h 4.8 km/h 82 % 0.0 mm 91 W/m2
20:05 17.4 °C 14.3 °C 1026.0 hPa West 4.8 km/h 4.8 km/h 82 % 0.0 mm 84 W/m2
20:10 17.3 °C 14.4 °C 1026.0 hPa West 4.8 km/h 6.4 km/h 83 % 0.0 mm 76 W/m2
20:15 17.2 °C 14.5 °C 1026.0 hPa Calm   6.4 km/h 84 % 0.0 mm 70 W/m2
20:20 17.1 °C 14.4 °C 1026.0 hPa Calm   6.4 km/h 84 % 0.0 mm 67 W/m2
20:25 17.1 °C 14.3 °C 1026.0 hPa Calm   1.6 km/h 84 % 0.0 mm 63 W/m2
20:30 17.0 °C 14.3 °C 1026.0 hPa Calm   3.2 km/h 84 % 0.0 mm 62 W/m2
20:35 17.1 °C 14.3 °C 1026.0 hPa Calm   3.2 km/h 84 % 0.0 mm 60 W/m2
20:40 17.0 °C 14.3 °C 1026.0 hPa Calm   1.6 km/h 84 % 0.0 mm 56 W/m2
20:45 16.9 °C 14.2 °C 1026.0 hPa Calm   4.8 km/h 84 % 0.0 mm 53 W/m2
20:50 16.9 °C 14.2 °C 1026.0 hPa West 3.2 km/h 4.8 km/h 84 % 0.0 mm 47 W/m2
20:55 16.8 °C 14.1 °C 1026.0 hPa Calm   4.8 km/h 84 % 0.0 mm 40 W/m2
21:00 16.7 °C 14.2 °C 1026.0 hPa Calm   3.2 km/h 85 % 0.0 mm 33 W/m2
21:05 16.3 °C 14.0 °C 1026.0 hPa Calm     86 % 0.0 mm 26 W/m2
21:10 16.1 °C 13.9 °C 1026.0 hPa West 1.6 km/h 1.6 km/h 87 % 0.0 mm 21 W/m2
21:15 16.1 °C 14.1 °C 1026.0 hPa Calm   1.6 km/h 88 % 0.0 mm 19 W/m2
21:20 16.1 °C 14.1 °C 1026.0 hPa Calm   1.6 km/h 88 % 0.0 mm 18 W/m2
21:25 16.2 °C 14.2 °C 1026.0 hPa Calm   1.6 km/h 88 % 0.0 mm 16 W/m2
21:30 15.9 °C 13.9 °C 1026.0 hPa Calm   1.6 km/h 88 % 0.0 mm 14 W/m2
21:35 15.6 °C 13.8 °C 1026.0 hPa Calm     89 % 0.0 mm 12 W/m2
21:40 15.4 °C 13.8 °C 1026.0 hPa Calm     90 % 0.0 mm 5 W/m2
21:45 15.2 °C 13.7 °C 1026.0 hPa Calm     91 % 0.0 mm 0 W/m2
21:50 15.0 °C 13.5 °C 1026.0 hPa Calm     91 % 0.0 mm 0 W/m2
21:55 14.9 °C 13.7 °C 1026.0 hPa Calm     92 % 0.0 mm 0 W/m2
22:00 14.9 °C 13.6 °C 1026.0 hPa Calm     92 % 0.0 mm 0 W/m2
22:05 14.8 °C 13.5 °C 1026.0 hPa Calm     92 % 0.0 mm 0 W/m2
22:10 14.7 °C 13.5 °C 1026.0 hPa Calm     93 % 0.0 mm 0 W/m2
22:15 14.6 °C 13.5 °C 1026.0 hPa Calm     93 % 0.0 mm 0 W/m2
22:25 14.8 °C 13.9 °C 1026.0 hPa Calm   1.6 km/h 94 % 0.0 mm 0 W/m2
22:30 14.9 °C 13.8 °C 1026.0 hPa Calm   1.6 km/h 93 % 0.0 mm 0 W/m2
22:35 14.9 °C 13.8 °C 1026.0 hPa Calm     93 % 0.0 mm 0 W/m2
22:40 14.8 °C 13.7 °C 1026.0 hPa Calm   1.6 km/h 93 % 0.0 mm 0 W/m2
22:45 14.9 °C 13.8 °C 1026.3 hPa Calm   1.6 km/h 93 % 0.0 mm 0 W/m2
22:50 15.0 °C 13.9 °C 1026.3 hPa Calm   1.6 km/h 93 % 0.0 mm 0 W/m2
22:55 14.9 °C 13.7 °C 1026.3 hPa Calm     92 % 0.0 mm 0 W/m2
23:00 14.7 °C 13.4 °C 1026.3 hPa Calm     92 % 0.0 mm 0 W/m2
23:10 14.4 °C 13.5 °C 1026.3 hPa Calm     94 % 0.0 mm 0 W/m2
23:15 14.3 °C 13.4 °C 1026.3 hPa Calm     94 % 0.0 mm 0 W/m2
23:20 14.3 °C 13.3 °C 1026.3 hPa Calm     94 % 0.0 mm 0 W/m2
23:25 14.2 °C 13.3 °C 1026.3 hPa Calm     94 % 0.0 mm 0 W/m2
23:30 14.3 °C 13.3 °C 1026.3 hPa Calm     94 % 0.0 mm 0 W/m2
23:35 14.2 °C 13.3 °C 1026.3 hPa Calm     94 % 0.0 mm 0 W/m2
23:40 14.2 °C 13.4 °C 1026.3 hPa Calm     95 % 0.0 mm 0 W/m2
23:45 14.2 °C 13.4 °C 1026.3 hPa Calm     95 % 0.0 mm 0 W/m2
23:50 14.2 °C 13.4 °C 1026.3 hPa Calm     95 % 0.0 mm 0 W/m2
23:55 14.3 °C 13.5 °C 1026.3 hPa Calm     95 % 0.0 mm 0 W/m2
Avec l'autorisation de Weather Underground - 1.5 mb